Awaji Maru — JD2988 — position and weather

sailwx.info

Track history (hours):
 
Tides and Currents Weather Stations Pressure Air Temp Water Temp Dewpoint Dewpoint Depression Visibility Wind Speed Wind Dir Waves Ship Positions

Awaji Maru

Last reported at 2017-Feb-19 20:33 UTC. Time now 2017-Feb-19 21:13 UTC.
Position N 35°27' E 139°40'.

Length 37 m; draft 3 m.

Type: Tug. MMSI: 431001074.

Date/timePositionNaut miles runAvg speedWind from/ knotsBaromVisibWave heightAir tempDewpointWater temp
2017-Feb-19 20:33N 35°27' E 139°40'0 0.0
2017-Feb-19 19:34N 35°27' E 139°40'0 0.0
2017-Feb-19 18:33N 35°27' E 139°40'0 0.0
2017-Feb-19 17:33N 35°27' E 139°40'0 0.0
2017-Feb-19 16:33N 35°27' E 139°40'0 0.0
2017-Feb-19 15:33N 35°27' E 139°40'0 0.0
2017-Feb-19 14:33N 35°27' E 139°40'0 0.0
2017-Feb-19 13:33N 35°27' E 139°40'0 0.0
2017-Feb-19 12:33N 35°27' E 139°40'0 0.0
2017-Feb-19 11:34N 35°27' E 139°40'0 0.0
2017-Feb-19 10:33N 35°27' E 139°40'0 0.0
2017-Feb-19 09:34N 35°27' E 139°40'0 0.0
2017-Feb-19 08:33N 35°27' E 139°40'0 0.0
2017-Feb-19 07:33N 35°27' E 139°40'0 0.0
2017-Feb-19 06:33N 35°27' E 139°40'0 0.0
2017-Feb-19 05:33N 35°27' E 139°40'0 0.0
2017-Feb-19 04:34N 35°27' E 139°40'0 0.0
2017-Feb-19 03:33N 35°27' E 139°40'0 0.0
2017-Feb-19 02:33N 35°27' E 139°40'0 0.3
2017-Feb-19 01:33N 35°27' E 139°39'4 3.9
2017-Feb-19 00:33N 35°23' E 139°41'2 2.2
2017-Feb-18 23:33N 35°24' E 139°38'2 2.5
2017-Feb-18 22:33N 35°23' E 139°41'1 1.4
2017-Feb-18 21:33N 35°23' E 139°39'2 2.3
2017-Feb-18 20:33N 35°25' E 139°42'3 3.0
2017-Feb-18 19:33N 35°27' E 139°40'0 0.0
2017-Feb-18 18:33N 35°27' E 139°40'0 0.0
2017-Feb-18 17:33N 35°27' E 139°40'0 0.0
2017-Feb-18 16:33N 35°27' E 139°40'0 0.0
2017-Feb-18 15:33N 35°27' E 139°40'0 0.0
2017-Feb-18 14:33N 35°27' E 139°40'0 0.0
2017-Feb-18 13:33N 35°27' E 139°40'0 0.0
2017-Feb-18 12:34N 35°27' E 139°40'0 0.0
2017-Feb-18 11:33N 35°27' E 139°40'0 0.0
2017-Feb-18 10:33N 35°27' E 139°40'0 0.0
2017-Feb-18 09:33N 35°27' E 139°40'0 0.0
2017-Feb-18 08:33N 35°27' E 139°40'1010.4
2017-Feb-18 07:34N 35°30' E 139°52'2 1.1
2017-Feb-18 05:22N 35°29' E 139°55'0 0.5
2017-Feb-18 04:30N 35°29' E 139°55'2 2.2
2017-Feb-18 03:33N 35°31' E 139°56'0 0.1
2017-Feb-18 02:33N 35°31' E 139°56'1 1.1
2017-Feb-18 01:33N 35°30' E 139°55'0 0.2
2017-Feb-18 00:21N 35°30' E 139°55'1 1.1
2017-Feb-17 23:11N 35°31' E 139°56'0 0.2
2017-Feb-17 22:33N 35°31' E 139°56'8 8.2
2017-Feb-17 21:33N 35°27' E 139°47'6 6.0
2017-Feb-17 20:33N 35°27' E 139°40'0 0.0
2017-Feb-17 19:33N 35°27' E 139°40'0 0.0
2017-Feb-17 18:33N 35°27' E 139°40'0 0.0
2017-Feb-17 17:33N 35°27' E 139°40'0 0.0
2017-Feb-17 16:33N 35°27' E 139°40'0 0.0
2017-Feb-17 15:33N 35°27' E 139°40'0 0.0
2017-Feb-17 14:33N 35°27' E 139°40'0 0.0
2017-Feb-17 13:33N 35°27' E 139°40'0 0.0
2017-Feb-17 12:33N 35°27' E 139°40'0 0.0
2017-Feb-17 11:33N 35°27' E 139°40'0 0.0
2017-Feb-17 10:33N 35°27' E 139°40'0 0.0
2017-Feb-17 09:33N 35°27' E 139°40'0 0.0
2017-Feb-17 08:33N 35°27' E 139°40'0 0.0
2017-Feb-17 07:33N 35°27' E 139°40'0 0.0
2017-Feb-17 06:33N 35°27' E 139°40'0 0.0
2017-Feb-17 05:33N 35°27' E 139°40'0 0.0
2017-Feb-17 04:33N 35°27' E 139°40'0 0.0
2017-Feb-17 03:33N 35°27' E 139°40'0 0.0
2017-Feb-17 02:33N 35°27' E 139°40'0 0.0
2017-Feb-17 01:33N 35°27' E 139°40'0 0.0
2017-Feb-17 00:33N 35°27' E 139°40'5 4.7
2017-Feb-16 23:34N 35°30' E 139°44'2 2.0
2017-Feb-16 22:33N 35°29' E 139°42'1 1.3
2017-Feb-16 21:34N 35°28' E 139°42'2 2.2
2017-Feb-16 20:33N 35°29' E 139°44'2 2.4
2017-Feb-16 19:33N 35°27' E 139°42'2 1.5
2017-Feb-16 18:34N 35°26' E 139°41'1 0.7
2017-Feb-16 17:33N 35°26' E 139°42'2 2.2
2017-Feb-16 16:33N 35°24' E 139°41'4 3.8
2017-Feb-16 15:33N 35°27' E 139°39'0 0.0
2017-Feb-16 14:33N 35°27' E 139°39'0 0.0
2017-Feb-16 13:33N 35°27' E 139°39'0 0.0
2017-Feb-16 12:33N 35°27' E 139°39'0 0.0
2017-Feb-16 11:33N 35°27' E 139°39'1 1.5
2017-Feb-16 10:33N 35°27' E 139°41'1 0.7
2017-Feb-16 09:34N 35°27' E 139°42'1 0.9
2017-Feb-16 08:33N 35°27' E 139°41'1 1.5
2017-Feb-16 07:33N 35°27' E 139°39'0 0.0
2017-Feb-16 06:33N 35°27' E 139°39'7 6.7
2017-Feb-16 05:33N 35°29' E 139°47'0 0.0
2017-Feb-16 04:33N 35°29' E 139°47'1 1.0
2017-Feb-16 03:33N 35°28' E 139°47'3 3.3
2017-Feb-16 02:34N 35°26' E 139°44'4 3.6
2017-Feb-16 01:34N 35°27' E 139°40'0 0.0
2017-Feb-16 00:33N 35°27' E 139°40'0 0.0
2017-Feb-15 23:34N 35°27' E 139°40'0 0.0
2017-Feb-15 22:34N 35°27' E 139°40'0 0.0
2017-Feb-15 21:34N 35°27' E 139°40'0 0.0
2017-Feb-15 20:34N 35°27' E 139°40'0 0.0
2017-Feb-15 19:34N 35°27' E 139°40'0 0.0
2017-Feb-15 18:34N 35°27' E 139°40'0 0.0
2017-Feb-15 17:33N 35°27' E 139°40'0 0.0
2017-Feb-15 16:34N 35°27' E 139°40'0 0.0
2017-Feb-15 15:34N 35°27' E 139°40'0 0.0
2017-Feb-15 14:34N 35°27' E 139°40'0 0.0
2017-Feb-15 13:34N 35°27' E 139°40'0 0.0
2017-Feb-15 12:34N 35°27' E 139°40'0 0.0
2017-Feb-15 11:34N 35°27' E 139°40'0 0.0
2017-Feb-15 10:34N 35°27' E 139°40'0 0.0
2017-Feb-15 09:34N 35°27' E 139°40'0 0.0
2017-Feb-15 08:34N 35°27' E 139°40'0 0.0
2017-Feb-15 07:34N 35°27' E 139°40'0 0.0
2017-Feb-15 06:34N 35°27' E 139°40'0 0.0
2017-Feb-15 05:33N 35°27' E 139°40'0 0.0
2017-Feb-15 04:34N 35°27' E 139°40'0 0.0
2017-Feb-15 03:34N 35°27' E 139°40'0 0.0
2017-Feb-15 02:34N 35°27' E 139°40'0 0.0
2017-Feb-15 01:34N 35°27' E 139°40'0 0.0
2017-Feb-15 00:34N 35°27' E 139°40'1 0.8
2017-Feb-14 23:34N 35°27' E 139°41'3 3.1
2017-Feb-14 22:33N 35°24' E 139°40'1 1.3
2017-Feb-14 21:33N 35°23' E 139°41'0 0.3
2017-Feb-14 20:34N 35°23' E 139°40'0 0.0
2017-Feb-14 19:32N 35°23' E 139°40'0 0.0
2017-Feb-14 18:32N 35°23' E 139°40'0 0.0
2017-Feb-14 17:32N 35°23' E 139°40'1 1.5
2017-Feb-14 16:33N 35°24' E 139°41'0 0.3
2017-Feb-14 15:33N 35°24' E 139°41'1 0.2
2017-Feb-14 11:33N 35°23' E 139°41'7 6.9
2017-Feb-14 10:33N 35°30' E 139°44'2 2.0
2017-Feb-14 09:33N 35°29' E 139°42'5 4.8
2017-Feb-14 08:34N 35°24' E 139°41'4 3.9
2017-Feb-14 07:33N 35°26' E 139°45'4 4.2
2017-Feb-14 06:33N 35°27' E 139°40'0 0.0
2017-Feb-14 05:33N 35°27' E 139°40'0 0.0
2017-Feb-14 04:33N 35°27' E 139°40'0 0.0
2017-Feb-14 03:33N 35°27' E 139°40'0 0.0
2017-Feb-14 02:33N 35°27' E 139°40'1 1.2
2017-Feb-14 01:33N 35°28' E 139°40'2 1.9
2017-Feb-14 00:33N 35°27' E 139°42'2 1.9
2017-Feb-13 23:33N 35°27' E 139°39'0 0.1
2017-Feb-13 22:33N 35°27' E 139°39'0 0.0
2017-Feb-13 21:33N 35°27' E 139°39'0 0.0
2017-Feb-13 20:33N 35°27' E 139°39'0 0.0
2017-Feb-13 19:33N 35°27' E 139°39'0 0.0
2017-Feb-13 18:33N 35°27' E 139°39'0 0.0
2017-Feb-13 17:33N 35°27' E 139°39'0 0.0
2017-Feb-13 16:33N 35°27' E 139°39'0 0.0
2017-Feb-13 15:33N 35°27' E 139°39'0 0.0
2017-Feb-13 14:33N 35°27' E 139°39'0 0.0
2017-Feb-13 13:33N 35°27' E 139°39'0 0.0
2017-Feb-13 12:33N 35°27' E 139°39'0 0.0
2017-Feb-13 11:33N 35°27' E 139°39'0 0.0
2017-Feb-13 10:33N 35°27' E 139°39'0 0.0
2017-Feb-13 09:33N 35°27' E 139°39'0 0.0
2017-Feb-13 08:33N 35°27' E 139°39'0 0.0
2017-Feb-13 07:33N 35°27' E 139°39'0 0.0
2017-Feb-13 06:33N 35°27' E 139°39'0 0.1
2017-Feb-13 05:34N 35°27' E 139°39'7 6.5
2017-Feb-13 04:33N 35°30' E 139°46'6 6.0
2017-Feb-13 03:33N 35°27' E 139°40'1 0.6
2017-Feb-13 02:33N 35°27' E 139°39'0 0.1
2017-Feb-13 01:33N 35°27' E 139°39'1 1.1
2017-Feb-13 00:33N 35°28' E 139°40'5 4.5
2017-Feb-12 23:33N 35°30' E 139°45'1 1.4
2017-Feb-12 22:33N 35°30' E 139°43'3 2.7
2017-Feb-12 21:33N 35°27' E 139°43'2 1.8
2017-Feb-12 20:33N 35°27' E 139°41'1 1.0
2017-Feb-12 19:33N 35°27' E 139°39'0 0.0
2017-Feb-12 18:33N 35°27' E 139°39'0 0.0
2017-Feb-12 17:33N 35°27' E 139°39'0 0.0
2017-Feb-12 16:33N 35°27' E 139°39'0 0.0
2017-Feb-12 15:33N 35°27' E 139°39'0 0.0
2017-Feb-12 14:33N 35°27' E 139°39'0 0.0
2017-Feb-12 13:33N 35°27' E 139°39'0 0.0
2017-Feb-12 12:33N 35°27' E 139°39'0 0.0
2017-Feb-12 11:33N 35°27' E 139°39'0 0.0
2017-Feb-12 10:33N 35°27' E 139°39'2 2.3
2017-Feb-12 09:33N 35°26' E 139°42'3 2.6
2017-Feb-12 08:33N 35°27' E 139°45'5 5.5
2017-Feb-12 07:33N 35°27' E 139°39'1 0.8
2017-Feb-12 06:33N 35°27' E 139°39'1 1.4
2017-Feb-12 05:33N 35°26' E 139°41'1 1.5
2017-Feb-12 04:34N 35°27' E 139°42'1 0.7
2017-Feb-12 03:33N 35°28' E 139°42'1 1.2
2017-Feb-12 02:33N 35°27' E 139°43'3 2.7
2017-Feb-12 01:34N 35°27' E 139°40'4 4.0
2017-Feb-12 00:33N 35°28' E 139°44'4 4.0
2017-Feb-11 23:33N 35°27' E 139°40'0 0.3
2017-Feb-11 22:34N 35°27' E 139°39'0 0.0
2017-Feb-11 21:33N 35°27' E 139°39'0 0.0
2017-Feb-11 20:34N 35°27' E 139°39'0 0.0
2017-Feb-11 19:34N 35°27' E 139°39'0 0.0
2017-Feb-11 18:33N 35°27' E 139°39'0 0.0
2017-Feb-11 17:34N 35°27' E 139°39'0 0.0
2017-Feb-11 16:33N 35°27' E 139°39'0 0.0
2017-Feb-11 15:34N 35°27' E 139°39'0 0.0
2017-Feb-11 14:33N 35°27' E 139°39'0 0.0
2017-Feb-11 13:33N 35°27' E 139°39'0 0.0
2017-Feb-11 12:34N 35°27' E 139°39'0 0.0
2017-Feb-11 11:34N 35°27' E 139°39'0 0.0
2017-Feb-11 10:33N 35°27' E 139°39'0 0.0
2017-Feb-11 09:34N 35°27' E 139°39'0 0.0
2017-Feb-11 08:34N 35°27' E 139°39'0 0.0
2017-Feb-11 07:33N 35°27' E 139°39'1 1.1
2017-Feb-11 06:34N 35°28' E 139°41'0 0.3
2017-Feb-11 05:34N 35°28' E 139°40'6 6.0
2017-Feb-11 04:33N 35°31' E 139°46'2 1.6
2017-Feb-11 03:34N 35°30' E 139°48'5 4.6
2017-Feb-11 02:33N 35°26' E 139°44'4 3.6
2017-Feb-11 01:34N 35°27' E 139°39'0 0.0
2017-Feb-11 00:33N 35°27' E 139°39'1 1.5
2017-Feb-10 23:33N 35°26' E 139°41'1 1.3
2017-Feb-10 22:34N 35°26' E 139°43'3 2.8
2017-Feb-10 21:33N 35°27' E 139°40'0 0.3
2017-Feb-10 20:33N 35°27' E 139°39'0 0.0
2017-Feb-10 19:33N 35°27' E 139°39'0 0.0
2017-Feb-10 18:33N 35°27' E 139°39'0 0.0
2017-Feb-10 17:33N 35°27' E 139°39'0 0.0
2017-Feb-10 16:33N 35°27' E 139°39'0 0.0
2017-Feb-10 15:33N 35°27' E 139°39'0 0.0
2017-Feb-10 14:33N 35°27' E 139°39'0 0.0
2017-Feb-10 13:33N 35°27' E 139°39'0 0.0
2017-Feb-10 12:33N 35°27' E 139°39'0 0.0
2017-Feb-10 11:33N 35°27' E 139°39'0 0.0
2017-Feb-10 10:33N 35°27' E 139°39'0 0.0
2017-Feb-10 09:33N 35°27' E 139°39'7 6.7
2017-Feb-10 08:33N 35°31' E 139°46'0 0.0
2017-Feb-10 07:33N 35°31' E 139°46'2 1.5
2017-Feb-10 06:33N 35°30' E 139°47'6 6.2
2017-Feb-10 05:33N 35°27' E 139°40'0 0.2
2017-Feb-10 04:33N 35°28' E 139°40'0 0.0
2017-Feb-10 03:33N 35°28' E 139°40'1 1.0
2017-Feb-10 02:33N 35°27' E 139°41'3 2.7
2017-Feb-10 01:33N 35°25' E 139°39'3 2.8
2017-Feb-10 00:33N 35°23' E 139°41'1 1.0
2017-Feb-09 23:33N 35°23' E 139°40'0 0.0
2017-Feb-09 22:33N 35°23' E 139°40'0 0.0
2017-Feb-09 21:33N 35°23' E 139°40'4 3.7
2017-Feb-09 20:33N 35°27' E 139°41'  
Track history (hours):
 
Tides and Currents Weather Stations Pressure Air Temp Water Temp Dewpoint Dewpoint Depression Visibility Wind Speed Wind Dir Waves Ship Positions

Awaji Maru

Last reported at 2017-Feb-19 20:33 UTC. Time now 2017-Feb-19 21:13 UTC.
Position N 35°27' E 139°40'.

Length 37 m; draft 3 m.

Type: Tug. MMSI: 431001074.

Date/timePositionNaut miles runAvg speedWind from/ knotsBaromVisibWave heightAir tempDewpointWater temp
2017-Feb-19 20:33N 35°27' E 139°40'0 0.0
2017-Feb-19 19:34N 35°27' E 139°40'0 0.0
2017-Feb-19 18:33N 35°27' E 139°40'0 0.0
2017-Feb-19 17:33N 35°27' E 139°40'0 0.0
2017-Feb-19 16:33N 35°27' E 139°40'0 0.0
2017-Feb-19 15:33N 35°27' E 139°40'0 0.0
2017-Feb-19 14:33N 35°27' E 139°40'0 0.0
2017-Feb-19 13:33N 35°27' E 139°40'0 0.0
2017-Feb-19 12:33N 35°27' E 139°40'0 0.0
2017-Feb-19 11:34N 35°27' E 139°40'0 0.0
2017-Feb-19 10:33N 35°27' E 139°40'0 0.0
2017-Feb-19 09:34N 35°27' E 139°40'0 0.0
2017-Feb-19 08:33N 35°27' E 139°40'0 0.0
2017-Feb-19 07:33N 35°27' E 139°40'0 0.0
2017-Feb-19 06:33N 35°27' E 139°40'0 0.0
2017-Feb-19 05:33N 35°27' E 139°40'0 0.0
2017-Feb-19 04:34N 35°27' E 139°40'0 0.0
2017-Feb-19 03:33N 35°27' E 139°40'0 0.0
2017-Feb-19 02:33N 35°27' E 139°40'0 0.3
2017-Feb-19 01:33N 35°27' E 139°39'4 3.9
2017-Feb-19 00:33N 35°23' E 139°41'2 2.2
2017-Feb-18 23:33N 35°24' E 139°38'2 2.5
2017-Feb-18 22:33N 35°23' E 139°41'1 1.4
2017-Feb-18 21:33N 35°23' E 139°39'2 2.3
2017-Feb-18 20:33N 35°25' E 139°42'3 3.0
2017-Feb-18 19:33N 35°27' E 139°40'0 0.0
2017-Feb-18 18:33N 35°27' E 139°40'0 0.0
2017-Feb-18 17:33N 35°27' E 139°40'0 0.0
2017-Feb-18 16:33N 35°27' E 139°40'0 0.0
2017-Feb-18 15:33N 35°27' E 139°40'0 0.0
2017-Feb-18 14:33N 35°27' E 139°40'0 0.0
2017-Feb-18 13:33N 35°27' E 139°40'0 0.0
2017-Feb-18 12:34N 35°27' E 139°40'0 0.0
2017-Feb-18 11:33N 35°27' E 139°40'0 0.0
2017-Feb-18 10:33N 35°27' E 139°40'0 0.0
2017-Feb-18 09:33N 35°27' E 139°40'0 0.0
2017-Feb-18 08:33N 35°27' E 139°40'1010.4
2017-Feb-18 07:34N 35°30' E 139°52'2 1.1
2017-Feb-18 05:22N 35°29' E 139°55'0 0.5
2017-Feb-18 04:30N 35°29' E 139°55'2 2.2
2017-Feb-18 03:33N 35°31' E 139°56'0 0.1
2017-Feb-18 02:33N 35°31' E 139°56'1 1.1
2017-Feb-18 01:33N 35°30' E 139°55'0 0.2
2017-Feb-18 00:21N 35°30' E 139°55'1 1.1
2017-Feb-17 23:11N 35°31' E 139°56'0 0.2
2017-Feb-17 22:33N 35°31' E 139°56'8 8.2
2017-Feb-17 21:33N 35°27' E 139°47'6 6.0
2017-Feb-17 20:33N 35°27' E 139°40'0 0.0
2017-Feb-17 19:33N 35°27' E 139°40'0 0.0
2017-Feb-17 18:33N 35°27' E 139°40'0 0.0
2017-Feb-17 17:33N 35°27' E 139°40'0 0.0
2017-Feb-17 16:33N 35°27' E 139°40'0 0.0
2017-Feb-17 15:33N 35°27' E 139°40'0 0.0
2017-Feb-17 14:33N 35°27' E 139°40'0 0.0
2017-Feb-17 13:33N 35°27' E 139°40'0 0.0
2017-Feb-17 12:33N 35°27' E 139°40'0 0.0
2017-Feb-17 11:33N 35°27' E 139°40'0 0.0
2017-Feb-17 10:33N 35°27' E 139°40'0 0.0
2017-Feb-17 09:33N 35°27' E 139°40'0 0.0
2017-Feb-17 08:33N 35°27' E 139°40'0 0.0
2017-Feb-17 07:33N 35°27' E 139°40'0 0.0
2017-Feb-17 06:33N 35°27' E 139°40'0 0.0
2017-Feb-17 05:33N 35°27' E 139°40'0 0.0
2017-Feb-17 04:33N 35°27' E 139°40'0 0.0
2017-Feb-17 03:33N 35°27' E 139°40'0 0.0
2017-Feb-17 02:33N 35°27' E 139°40'0 0.0
2017-Feb-17 01:33N 35°27' E 139°40'0 0.0
2017-Feb-17 00:33N 35°27' E 139°40'5 4.7
2017-Feb-16 23:34N 35°30' E 139°44'2 2.0
2017-Feb-16 22:33N 35°29' E 139°42'1 1.3
2017-Feb-16 21:34N 35°28' E 139°42'2 2.2
2017-Feb-16 20:33N 35°29' E 139°44'2 2.4
2017-Feb-16 19:33N 35°27' E 139°42'2 1.5
2017-Feb-16 18:34N 35°26' E 139°41'1 0.7
2017-Feb-16 17:33N 35°26' E 139°42'2 2.2
2017-Feb-16 16:33N 35°24' E 139°41'4 3.8
2017-Feb-16 15:33N 35°27' E 139°39'0 0.0
2017-Feb-16 14:33N 35°27' E 139°39'0 0.0
2017-Feb-16 13:33N 35°27' E 139°39'0 0.0
2017-Feb-16 12:33N 35°27' E 139°39'0 0.0
2017-Feb-16 11:33N 35°27' E 139°39'1 1.5
2017-Feb-16 10:33N 35°27' E 139°41'1 0.7
2017-Feb-16 09:34N 35°27' E 139°42'1 0.9
2017-Feb-16 08:33N 35°27' E 139°41'1 1.5
2017-Feb-16 07:33N 35°27' E 139°39'0 0.0
2017-Feb-16 06:33N 35°27' E 139°39'7 6.7
2017-Feb-16 05:33N 35°29' E 139°47'0 0.0
2017-Feb-16 04:33N 35°29' E 139°47'1 1.0
2017-Feb-16 03:33N 35°28' E 139°47'3 3.3
2017-Feb-16 02:34N 35°26' E 139°44'4 3.6
2017-Feb-16 01:34N 35°27' E 139°40'0 0.0
2017-Feb-16 00:33N 35°27' E 139°40'0 0.0
2017-Feb-15 23:34N 35°27' E 139°40'0 0.0
2017-Feb-15 22:34N 35°27' E 139°40'0 0.0
2017-Feb-15 21:34N 35°27' E 139°40'0 0.0
2017-Feb-15 20:34N 35°27' E 139°40'0 0.0
2017-Feb-15 19:34N 35°27' E 139°40'0 0.0
2017-Feb-15 18:34N 35°27' E 139°40'0 0.0
2017-Feb-15 17:33N 35°27' E 139°40'0 0.0
2017-Feb-15 16:34N 35°27' E 139°40'0 0.0
2017-Feb-15 15:34N 35°27' E 139°40'0 0.0
2017-Feb-15 14:34N 35°27' E 139°40'0 0.0
2017-Feb-15 13:34N 35°27' E 139°40'0 0.0
2017-Feb-15 12:34N 35°27' E 139°40'0 0.0
2017-Feb-15 11:34N 35°27' E 139°40'0 0.0
2017-Feb-15 10:34N 35°27' E 139°40'0 0.0
2017-Feb-15 09:34N 35°27' E 139°40'0 0.0
2017-Feb-15 08:34N 35°27' E 139°40'0 0.0
2017-Feb-15 07:34N 35°27' E 139°40'0 0.0
2017-Feb-15 06:34N 35°27' E 139°40'0 0.0
2017-Feb-15 05:33N 35°27' E 139°40'0 0.0
2017-Feb-15 04:34N 35°27' E 139°40'0 0.0
2017-Feb-15 03:34N 35°27' E 139°40'0 0.0
2017-Feb-15 02:34N 35°27' E 139°40'0 0.0
2017-Feb-15 01:34N 35°27' E 139°40'0 0.0
2017-Feb-15 00:34N 35°27' E 139°40'1 0.8
2017-Feb-14 23:34N 35°27' E 139°41'3 3.1
2017-Feb-14 22:33N 35°24' E 139°40'1 1.3
2017-Feb-14 21:33N 35°23' E 139°41'0 0.3
2017-Feb-14 20:34N 35°23' E 139°40'0 0.0
2017-Feb-14 19:32N 35°23' E 139°40'0 0.0
2017-Feb-14 18:32N 35°23' E 139°40'0 0.0
2017-Feb-14 17:32N 35°23' E 139°40'1 1.5
2017-Feb-14 16:33N 35°24' E 139°41'0 0.3
2017-Feb-14 15:33N 35°24' E 139°41'1 0.2
2017-Feb-14 11:33N 35°23' E 139°41'7 6.9
2017-Feb-14 10:33N 35°30' E 139°44'2 2.0
2017-Feb-14 09:33N 35°29' E 139°42'5 4.8
2017-Feb-14 08:34N 35°24' E 139°41'4 3.9
2017-Feb-14 07:33N 35°26' E 139°45'4 4.2
2017-Feb-14 06:33N 35°27' E 139°40'0 0.0
2017-Feb-14 05:33N 35°27' E 139°40'0 0.0
2017-Feb-14 04:33N 35°27' E 139°40'0 0.0
2017-Feb-14 03:33N 35°27' E 139°40'0 0.0
2017-Feb-14 02:33N 35°27' E 139°40'1 1.2
2017-Feb-14 01:33N 35°28' E 139°40'2 1.9
2017-Feb-14 00:33N 35°27' E 139°42'2 1.9
2017-Feb-13 23:33N 35°27' E 139°39'0 0.1
2017-Feb-13 22:33N 35°27' E 139°39'0 0.0
2017-Feb-13 21:33N 35°27' E 139°39'0 0.0
2017-Feb-13 20:33N 35°27' E 139°39'0 0.0
2017-Feb-13 19:33N 35°27' E 139°39'0 0.0
2017-Feb-13 18:33N 35°27' E 139°39'0 0.0
2017-Feb-13 17:33N 35°27' E 139°39'0 0.0
2017-Feb-13 16:33N 35°27' E 139°39'0 0.0
2017-Feb-13 15:33N 35°27' E 139°39'0 0.0
2017-Feb-13 14:33N 35°27' E 139°39'0 0.0
2017-Feb-13 13:33N 35°27' E 139°39'0 0.0
2017-Feb-13 12:33N 35°27' E 139°39'0 0.0
2017-Feb-13 11:33N 35°27' E 139°39'0 0.0
2017-Feb-13 10:33N 35°27' E 139°39'0 0.0
2017-Feb-13 09:33N 35°27' E 139°39'0 0.0
2017-Feb-13 08:33N 35°27' E 139°39'0 0.0
2017-Feb-13 07:33N 35°27' E 139°39'0 0.0
2017-Feb-13 06:33N 35°27' E 139°39'0 0.1
2017-Feb-13 05:34N 35°27' E 139°39'7 6.5
2017-Feb-13 04:33N 35°30' E 139°46'6 6.0
2017-Feb-13 03:33N 35°27' E 139°40'1 0.6
2017-Feb-13 02:33N 35°27' E 139°39'0 0.1
2017-Feb-13 01:33N 35°27' E 139°39'1 1.1
2017-Feb-13 00:33N 35°28' E 139°40'5 4.5
2017-Feb-12 23:33N 35°30' E 139°45'1 1.4
2017-Feb-12 22:33N 35°30' E 139°43'3 2.7
2017-Feb-12 21:33N 35°27' E 139°43'2 1.8
2017-Feb-12 20:33N 35°27' E 139°41'1 1.0
2017-Feb-12 19:33N 35°27' E 139°39'0 0.0
2017-Feb-12 18:33N 35°27' E 139°39'0 0.0
2017-Feb-12 17:33N 35°27' E 139°39'0 0.0
2017-Feb-12 16:33N 35°27' E 139°39'0 0.0
2017-Feb-12 15:33N 35°27' E 139°39'0 0.0
2017-Feb-12 14:33N 35°27' E 139°39'0 0.0
2017-Feb-12 13:33N 35°27' E 139°39'0 0.0
2017-Feb-12 12:33N 35°27' E 139°39'0 0.0
2017-Feb-12 11:33N 35°27' E 139°39'0 0.0
2017-Feb-12 10:33N 35°27' E 139°39'2 2.3
2017-Feb-12 09:33N 35°26' E 139°42'3 2.6
2017-Feb-12 08:33N 35°27' E 139°45'5 5.5
2017-Feb-12 07:33N 35°27' E 139°39'1 0.8
2017-Feb-12 06:33N 35°27' E 139°39'1 1.4
2017-Feb-12 05:33N 35°26' E 139°41'1 1.5
2017-Feb-12 04:34N 35°27' E 139°42'1 0.7
2017-Feb-12 03:33N 35°28' E 139°42'1 1.2
2017-Feb-12 02:33N 35°27' E 139°43'3 2.7
2017-Feb-12 01:34N 35°27' E 139°40'4 4.0
2017-Feb-12 00:33N 35°28' E 139°44'4 4.0
2017-Feb-11 23:33N 35°27' E 139°40'0 0.3
2017-Feb-11 22:34N 35°27' E 139°39'0 0.0
2017-Feb-11 21:33N 35°27' E 139°39'0 0.0
2017-Feb-11 20:34N 35°27' E 139°39'0 0.0
2017-Feb-11 19:34N 35°27' E 139°39'0 0.0
2017-Feb-11 18:33N 35°27' E 139°39'0 0.0
2017-Feb-11 17:34N 35°27' E 139°39'0 0.0
2017-Feb-11 16:33N 35°27' E 139°39'0 0.0
2017-Feb-11 15:34N 35°27' E 139°39'0 0.0
2017-Feb-11 14:33N 35°27' E 139°39'0 0.0
2017-Feb-11 13:33N 35°27' E 139°39'0 0.0
2017-Feb-11 12:34N 35°27' E 139°39'0 0.0
2017-Feb-11 11:34N 35°27' E 139°39'0 0.0
2017-Feb-11 10:33N 35°27' E 139°39'0 0.0
2017-Feb-11 09:34N 35°27' E 139°39'0 0.0
2017-Feb-11 08:34N 35°27' E 139°39'0 0.0
2017-Feb-11 07:33N 35°27' E 139°39'1 1.1
2017-Feb-11 06:34N 35°28' E 139°41'0 0.3
2017-Feb-11 05:34N 35°28' E 139°40'6 6.0
2017-Feb-11 04:33N 35°31' E 139°46'2 1.6
2017-Feb-11 03:34N 35°30' E 139°48'5 4.6
2017-Feb-11 02:33N 35°26' E 139°44'4 3.6
2017-Feb-11 01:34N 35°27' E 139°39'0 0.0
2017-Feb-11 00:33N 35°27' E 139°39'1 1.5
2017-Feb-10 23:33N 35°26' E 139°41'1 1.3
2017-Feb-10 22:34N 35°26' E 139°43'3 2.8
2017-Feb-10 21:33N 35°27' E 139°40'0 0.3
2017-Feb-10 20:33N 35°27' E 139°39'0 0.0
2017-Feb-10 19:33N 35°27' E 139°39'0 0.0
2017-Feb-10 18:33N 35°27' E 139°39'0 0.0
2017-Feb-10 17:33N 35°27' E 139°39'0 0.0
2017-Feb-10 16:33N 35°27' E 139°39'0 0.0
2017-Feb-10 15:33N 35°27' E 139°39'0 0.0
2017-Feb-10 14:33N 35°27' E 139°39'0 0.0
2017-Feb-10 13:33N 35°27' E 139°39'0 0.0
2017-Feb-10 12:33N 35°27' E 139°39'0 0.0
2017-Feb-10 11:33N 35°27' E 139°39'0 0.0
2017-Feb-10 10:33N 35°27' E 139°39'0 0.0
2017-Feb-10 09:33N 35°27' E 139°39'7 6.7
2017-Feb-10 08:33N 35°31' E 139°46'0 0.0
2017-Feb-10 07:33N 35°31' E 139°46'2 1.5
2017-Feb-10 06:33N 35°30' E 139°47'6 6.2
2017-Feb-10 05:33N 35°27' E 139°40'0 0.2
2017-Feb-10 04:33N 35°28' E 139°40'0 0.0
2017-Feb-10 03:33N 35°28' E 139°40'1 1.0
2017-Feb-10 02:33N 35°27' E 139°41'3 2.7
2017-Feb-10 01:33N 35°25' E 139°39'3 2.8
2017-Feb-10 00:33N 35°23' E 139°41'1 1.0
2017-Feb-09 23:33N 35°23' E 139°40'0 0.0
2017-Feb-09 22:33N 35°23' E 139°40'0 0.0
2017-Feb-09 21:33N 35°23' E 139°40'4 3.7
2017-Feb-09 20:33N 35°27' E 139°41'  

Dump ship's entire track history